Time;durP1;ratioP1;P1;durP2;ratioP2;P2;SDS_P1;SDS_P2;PMS_P1;PMS_P2;Temp;Humidity;BMP_temperature;BMP_pressure;BME280_temperature;BME280_humidity;BME280_pressure;Samples;Min_cycle;Max_cycle;Signal;HPM_P1;HPM_P2
2023/11/12 00:00:09;;;;;;;6.75;3.83;;;11.80;67.10;13.50;100339.00;;;;5019855;28;20204;-76
2023/11/12 00:02:36;;;;;;;4.97;3.30;;;11.70;67.00;13.50;100344.00;;;;5017528;28;20818;-77
2023/11/12 00:05:03;;;;;;;8.57;3.85;;;11.60;66.90;13.40;100338.00;;;;5017085;28;20200;-76
2023/11/12 00:07:31;;;;;;;3.63;3.33;;;11.60;66.90;13.40;100338.00;;;;5017832;28;20219;-77
2023/11/12 00:10:01;;;;;;;5.15;3.47;;;11.50;66.90;13.20;100339.00;;;;5016945;28;20199;-77
2023/11/12 00:12:28;;;;;;;4.20;3.47;;;11.50;67.60;13.20;100339.00;;;;5013185;28;20248;-77
2023/11/12 00:14:55;;;;;;;4.72;3.47;;;11.40;66.80;13.20;100335.00;;;;5010662;28;20209;-76
2023/11/12 00:17:24;;;;;;;4.25;3.83;;;11.40;67.60;13.10;100335.00;;;;5011412;28;20232;-77
2023/11/12 00:19:51;;;;;;;7.38;4.25;;;11.30;66.90;13.10;100336.00;;;;5010139;28;20204;-76
2023/11/12 00:22:19;;;;;;;11.02;4.95;;;11.30;66.90;13.00;100339.00;;;;5010682;28;20243;-76
2023/11/12 00:24:46;;;;;;;6.50;4.40;;;11.20;66.90;13.00;100337.00;;;;5010442;28;20203;-76
2023/11/12 00:27:13;;;;;;;8.60;3.85;;;11.10;66.80;12.90;100335.00;;;;5011028;28;20189;-76
2023/11/12 00:29:40;;;;;;;7.90;4.60;;;11.10;66.90;12.90;100324.00;;;;5009366;28;20216;-76
2023/11/12 00:32:08;;;;;;;8.63;5.35;;;11.00;66.80;12.80;100338.00;;;;5010845;28;20193;-76
2023/11/12 00:34:36;;;;;;;6.22;4.20;;;11.00;66.80;12.70;100341.00;;;;5012238;28;20207;-76
2023/11/12 00:37:04;;;;;;;9.23;4.93;;;10.90;66.80;12.70;100340.00;;;;5010671;28;20224;-76
2023/11/12 00:39:31;;;;;;;6.38;3.60;;;10.80;66.70;12.60;100342.00;;;;5010484;28;20247;-77
2023/11/12 00:41:58;;;;;;;6.90;3.83;;;10.80;66.80;12.60;100339.00;;;;5009662;28;20402;-76
2023/11/12 00:44:25;;;;;;;4.43;3.45;;;10.80;66.90;12.50;100337.00;;;;5009583;28;20197;-76
2023/11/12 00:46:52;;;;;;;6.50;4.28;;;10.70;66.90;12.50;100335.00;;;;5009867;28;20233;-76
2023/11/12 00:49:20;;;;;;;5.40;4.07;;;10.60;67.00;12.50;100334.00;;;;5009895;28;20197;-76
2023/11/12 00:51:49;;;;;;;7.55;3.88;;;10.60;67.10;12.40;100330.00;;;;5010119;28;20207;-76
2023/11/12 00:54:16;;;;;;;4.55;3.75;;;10.60;67.10;12.40;100334.00;;;;5010612;28;20189;-76
2023/11/12 00:56:43;;;;;;;6.63;3.58;;;10.60;67.20;12.40;100334.00;;;;5008699;28;20597;-76
2023/11/12 00:59:10;;;;;;;5.28;3.60;;;10.50;67.10;12.40;100314.00;;;;5010008;28;20201;-76
2023/11/12 01:01:37;;;;;;;5.85;3.20;;;10.50;67.10;12.30;100320.00;;;;5007417;28;20197;-76
2023/11/12 01:04:05;;;;;;;4.07;3.00;;;10.40;67.00;12.30;100315.00;;;;5009989;28;20207;-76
2023/11/12 01:06:33;;;;;;;4.57;3.42;;;10.40;67.10;12.20;100309.00;;;;5007730;28;20194;-76
2023/11/12 01:09:01;;;;;;;3.63;2.83;;;10.30;67.00;12.20;100317.00;;;;5009321;28;20196;-76
2023/11/12 01:11:29;;;;;;;3.95;3.10;;;10.30;66.90;12.20;100315.00;;;;5008628;28;20251;-76
2023/11/12 01:13:57;;;;;;;4.35;3.40;;;10.30;67.00;12.10;100317.00;;;;5006646;28;20284;-76
2023/11/12 01:16:25;;;;;;;3.97;3.05;;;10.20;66.90;12.10;100316.00;;;;5008761;28;20316;-76
2023/11/12 01:18:53;;;;;;;3.63;2.97;;;10.20;67.00;12.00;100311.00;;;;5008907;28;20224;-76
2023/11/12 01:21:20;;;;;;;5.85;3.15;;;10.20;67.00;12.00;100314.00;;;;5009148;28;20288;-76
2023/11/12 01:23:47;;;;;;;4.07;3.20;;;10.10;66.90;11.90;100311.00;;;;5009354;28;20288;-76
2023/11/12 01:26:15;;;;;;;4.43;3.60;;;10.10;67.00;11.90;100313.00;;;;5010903;28;20295;-76
2023/11/12 01:28:42;;;;;;;6.15;3.15;;;10.00;67.00;11.80;100317.00;;;;5009777;28;20229;-76
2023/11/12 01:31:09;;;;;;;3.58;3.03;;;10.00;67.10;11.80;100311.00;;;;5010235;28;20295;-76
2023/11/12 01:33:44;;;;;;;3.03;2.72;;;9.90;67.10;11.70;100318.00;;;;5010125;28;20650;-76
2023/11/12 01:36:12;;;;;;;3.63;3.22;;;9.90;67.10;11.80;100312.00;;;;5009557;28;20573;-76
2023/11/12 01:38:39;;;;;;;4.13;3.28;;;9.90;67.10;11.70;100313.00;;;;5010326;28;20197;-76
2023/11/12 01:41:06;;;;;;;5.47;3.30;;;9.80;67.10;11.70;100308.00;;;;5010751;28;20254;-76
2023/11/12 01:43:34;;;;;;;4.38;3.38;;;9.80;67.10;11.60;100317.00;;;;5030223;28;20204;-74
2023/11/12 01:46:04;;;;;;;4.78;3.50;;;9.80;67.10;11.60;100309.00;;;;5019713;28;21894;-74
2023/11/12 01:48:31;;;;;;;3.42;2.95;;;9.70;67.10;11.60;100301.00;;;;5009081;28;20985;-74
2023/11/12 01:51:04;;;;;;;5.05;3.63;;;9.70;67.40;11.50;100301.00;;;;5009407;28;20201;-74
2023/11/12 01:53:35;;;;;;;4.80;3.80;;;9.70;67.10;11.50;100303.00;;;;4999529;28;20740;-77
2023/11/12 01:56:04;;;;;;;4.07;3.58;;;9.60;67.00;11.50;100303.00;;;;5008132;28;20197;-77
2023/11/12 01:58:32;;;;;;;5.47;2.97;;;9.60;67.10;11.40;100306.00;;;;5010178;28;20674;-76
2023/11/12 02:01:01;;;;;;;6.05;3.58;;;9.60;67.10;11.40;100308.00;;;;5008103;28;20628;-77
2023/11/12 02:03:30;;;;;;;4.78;3.60;;;9.50;67.00;11.40;100302.00;;;;5009244;28;20213;-76
2023/11/12 02:05:58;;;;;;;4.05;3.42;;;9.50;67.10;11.30;100303.00;;;;5008272;28;20205;-77
2023/11/12 02:08:25;;;;;;;3.58;3.22;;;9.50;67.10;11.30;100303.00;;;;5009258;28;20196;-77
2023/11/12 02:10:52;;;;;;;4.18;2.70;;;9.40;67.10;11.30;100298.00;;;;5008643;28;20193;-76
2023/11/12 02:13:21;;;;;;;3.90;3.35;;;9.40;67.10;11.20;100303.00;;;;5009018;28;20195;-77
2023/11/12 02:15:49;;;;;;;5.45;3.28;;;9.30;67.10;11.20;100303.00;;;;4996572;28;20197;-76
2023/11/12 02:18:18;;;;;;;4.90;3.47;;;9.30;67.20;11.10;100304.00;;;;5009335;28;20240;-77
2023/11/12 02:20:46;;;;;;;3.95;3.45;;;9.30;67.20;11.10;100287.00;;;;5008132;28;20288;-77
2023/11/12 02:23:15;;;;;;;5.20;3.88;;;9.20;67.10;11.10;100290.00;;;;5009250;28;20208;-76
2023/11/12 02:25:44;;;;;;;4.18;3.40;;;9.30;67.20;11.10;100297.00;;;;5006992;28;20192;-77
2023/11/12 02:28:12;;;;;;;4.70;3.53;;;9.20;67.10;11.00;100288.00;;;;4997331;28;20300;-76
2023/11/12 02:30:40;;;;;;;5.38;3.58;;;9.10;67.10;11.00;100299.00;;;;5007957;28;20215;-76
2023/11/12 02:33:07;;;;;;;6.75;4.20;;;9.10;67.10;11.00;100288.00;;;;5016163;28;20204;-77
2023/11/12 02:35:36;;;;;;;4.75;3.72;;;9.10;67.10;11.00;100293.00;;;;5008000;28;20188;-77
2023/11/12 02:38:04;;;;;;;4.82;3.33;;;9.10;67.10;10.90;100293.00;;;;5008092;28;20221;-76
2023/11/12 02:40:31;;;;;;;4.60;3.70;;;9.00;67.10;10.90;100296.00;;;;5007331;28;20208;-76
2023/11/12 02:43:02;;;;;;;7.75;3.88;;;9.00;67.20;10.90;100300.00;;;;5007883;28;20673;-76
2023/11/12 02:45:29;;;;;;;5.93;3.60;;;9.00;67.20;10.80;100298.00;;;;5007619;28;20300;-76
2023/11/12 02:47:56;;;;;;;4.45;3.70;;;8.90;67.10;10.80;100297.00;;;;5007725;28;20655;-77
2023/11/12 02:50:31;;;;;;;8.15;3.72;;;8.90;67.10;10.70;100302.00;;;;5016504;28;20204;-76
2023/11/12 02:53:00;;;;;;;4.93;3.47;;;8.90;67.10;10.80;100301.00;;;;4989264;28;20193;-76
2023/11/12 02:55:28;;;;;;;4.93;3.67;;;8.80;67.00;10.70;100297.00;;;;4998915;28;20201;-76
2023/11/12 02:57:56;;;;;;;3.28;2.97;;;8.80;67.10;10.70;100289.00;;;;5007729;28;20252;-77
2023/11/12 03:00:27;;;;;;;4.85;3.38;;;8.80;67.20;10.60;100296.00;;;;5006775;28;20211;-77
2023/11/12 03:02:57;;;;;;;4.03;3.63;;;8.80;67.20;10.70;100298.00;;;;5008516;28;20208;-76
2023/11/12 03:05:25;;;;;;;3.92;3.50;;;8.70;67.20;10.60;100300.00;;;;5008003;28;20212;-77
2023/11/12 03:07:52;;;;;;;4.55;3.42;;;8.70;67.30;10.60;100294.00;;;;5012664;28;20280;-77
2023/11/12 03:10:19;;;;;;;3.72;3.03;;;8.70;67.30;10.60;100287.00;;;;5012296;28;20185;-76
2023/11/12 03:12:47;;;;;;;3.50;3.20;;;8.70;67.40;10.60;100291.00;;;;5012412;28;20221;-76
2023/11/12 03:15:14;;;;;;;4.38;3.33;;;8.70;67.30;10.60;100290.00;;;;5012711;28;20201;-76
2023/11/12 03:17:45;;;;;;;4.90;3.53;;;8.70;67.40;10.50;100290.00;;;;5010561;28;20216;-76
2023/11/12 03:20:14;;;;;;;17.65;3.55;;;8.70;67.40;10.50;100292.00;;;;5011865;28;20227;-76
2023/11/12 03:22:41;;;;;;;5.53;3.75;;;8.60;67.30;10.50;100305.00;;;;5011972;28;21140;-77
2023/11/12 03:25:09;;;;;;;4.82;3.95;;;8.60;67.30;10.50;100292.00;;;;5011904;28;20204;-77
2023/11/12 03:27:37;;;;;;;5.03;3.72;;;8.60;67.40;10.50;100294.00;;;;5010961;28;20240;-76
2023/11/12 03:30:05;;;;;;;4.70;3.55;;;8.60;67.40;10.50;100292.00;;;;5012517;28;20280;-76
2023/11/12 03:32:32;;;;;;;4.18;3.28;;;8.60;67.40;10.50;100289.00;;;;5012225;28;20203;-76
2023/11/12 03:35:02;;;;;;;5.30;3.38;;;8.60;67.50;10.40;100294.00;;;;5012247;28;20201;-76
2023/11/12 03:37:29;;;;;;;5.70;3.38;;;8.50;67.40;10.50;100288.00;;;;5011605;28;20217;-76
2023/11/12 03:39:57;;;;;;;6.03;4.28;;;8.50;67.50;10.50;100287.00;;;;5012211;28;20200;-76
2023/11/12 03:42:24;;;;;;;4.60;3.58;;;8.50;67.60;10.50;100290.00;;;;5012983;28;20205;-76
2023/11/12 03:44:51;;;;;;;4.90;4.07;;;8.50;67.60;10.50;100290.00;;;;5011410;28;20578;-77
2023/11/12 03:47:19;;;;;;;4.57;4.03;;;8.60;67.70;10.50;100288.00;;;;5011155;28;20286;-77
2023/11/12 03:49:46;;;;;;;6.45;4.20;;;8.50;67.70;10.50;100280.00;;;;5009813;28;20200;-77
2023/11/12 03:52:15;;;;;;;4.75;3.35;;;8.50;67.80;10.50;100291.00;;;;5010007;28;20197;-76
2023/11/12 03:54:42;;;;;;;4.20;3.17;;;8.50;67.70;10.50;100292.00;;;;5005116;28;20201;-76
2023/11/12 03:57:09;;;;;;;5.30;4.05;;;8.50;67.80;10.50;100288.00;;;;5009931;28;20229;-77
2023/11/12 03:59:37;;;;;;;4.40;3.90;;;8.60;67.80;10.50;100291.00;;;;5002829;28;20206;-76
2023/11/12 04:02:05;;;;;;;5.68;4.00;;;8.60;67.80;10.50;100287.00;;;;5009098;28;20207;-76
2023/11/12 04:04:32;;;;;;;5.22;4.22;;;8.60;67.80;10.40;100288.00;;;;5009450;28;20267;-76
2023/11/12 04:06:59;;;;;;;5.75;4.50;;;8.50;67.70;10.50;100294.00;;;;5007461;28;20213;-76
2023/11/12 04:09:27;;;;;;;6.60;4.30;;;8.50;67.70;10.40;100286.00;;;;5008053;28;20320;-77
2023/11/12 04:11:55;;;;;;;6.45;4.57;;;8.50;67.60;10.40;100286.00;;;;5010103;28;20193;-77
2023/11/12 04:14:22;;;;;;;5.82;4.10;;;8.50;68.20;10.40;100287.00;;;;5008927;28;20203;-77
2023/11/12 04:16:49;;;;;;;6.53;4.55;;;8.50;67.60;10.40;100285.00;;;;5008596;28;20284;-76
2023/11/12 04:19:16;;;;;;;6.35;4.40;;;8.50;67.60;10.40;100285.00;;;;5006905;28;20208;-77
2023/11/12 04:21:47;;;;;;;6.95;4.18;;;8.50;67.70;10.40;100288.00;;;;5000555;28;20680;-76
2023/11/12 04:24:14;;;;;;;6.07;4.55;;;8.50;67.70;10.40;100283.00;;;;5004963;28;20201;-76
2023/11/12 04:26:43;;;;;;;8.32;4.63;;;8.50;67.70;10.40;100281.00;;;;5007728;28;20216;-76
2023/11/12 04:29:13;;;;;;;4.68;4.10;;;8.50;67.70;10.40;100288.00;;;;5008609;28;20610;-77
2023/11/12 04:31:40;;;;;;;7.63;4.13;;;8.50;67.80;10.40;100282.00;;;;5009193;28;20209;-76
2023/11/12 04:34:07;;;;;;;5.15;3.92;;;8.50;67.70;10.40;100274.00;;;;5009903;28;20199;-76
2023/11/12 04:36:36;;;;;;;5.50;4.80;;;8.50;67.70;10.40;100275.00;;;;5007820;28;20189;-76
2023/11/12 04:39:03;;;;;;;5.13;4.05;;;8.50;67.60;10.40;100283.00;;;;5007561;28;20224;-77
2023/11/12 04:41:31;;;;;;;6.35;4.97;;;8.50;67.70;10.40;100289.00;;;;5007958;28;20201;-76
2023/11/12 04:44:00;;;;;;;6.80;4.70;;;8.50;67.60;10.30;100283.00;;;;5003041;28;20208;-77
2023/11/12 04:46:28;;;;;;;4.60;4.05;;;8.50;67.50;10.30;100286.00;;;;5008166;28;20236;-76
2023/11/12 04:48:55;;;;;;;5.75;4.60;;;8.50;67.50;10.30;100287.00;;;;5008609;28;20205;-76
2023/11/12 04:51:22;;;;;;;4.85;4.35;;;8.40;67.40;10.30;100288.00;;;;5007740;28;20193;-77
2023/11/12 04:53:50;;;;;;;4.78;4.10;;;8.40;67.40;10.30;100293.00;;;;5007788;28;20209;-77
2023/11/12 04:56:18;;;;;;;9.63;4.63;;;8.40;67.40;10.30;100294.00;;;;5009706;28;20193;-77
2023/11/12 04:58:45;;;;;;;5.18;4.10;;;8.40;67.40;10.20;100295.00;;;;5008261;28;20231;-77
2023/11/12 05:01:13;;;;;;;5.10;4.38;;;8.30;67.30;10.20;100293.00;;;;5007903;28;20205;-76
2023/11/12 05:03:41;;;;;;;5.28;4.15;;;8.30;67.30;10.20;100300.00;;;;5009846;28;20208;-77
2023/11/12 05:06:09;;;;;;;5.22;4.45;;;8.30;67.30;10.20;100310.00;;;;5004311;28;20257;-77
2023/11/12 05:08:38;;;;;;;5.90;4.28;;;8.30;67.40;10.20;100311.00;;;;5010806;28;20196;-77
2023/11/12 05:11:05;;;;;;;6.47;4.28;;;8.30;67.50;10.20;100310.00;;;;5007751;28;20838;-76
2023/11/12 05:13:32;;;;;;;4.93;4.10;;;8.30;67.50;10.20;100315.00;;;;5004530;28;20189;-76
2023/11/12 05:15:59;;;;;;;5.65;4.32;;;8.30;67.60;10.20;100308.00;;;;5010354;28;20201;-76
2023/11/12 05:18:27;;;;;;;6.78;4.93;;;8.30;67.80;10.20;100304.00;;;;5008924;28;20221;-76
2023/11/12 05:20:54;;;;;;;6.35;4.82;;;8.30;67.80;10.30;100307.00;;;;5008867;28;20197;-76
2023/11/12 05:23:21;;;;;;;5.72;4.53;;;8.30;67.80;10.30;100312.00;;;;5001212;28;20208;-76
2023/11/12 05:25:49;;;;;;;5.72;4.70;;;8.30;67.90;10.30;100315.00;;;;5008013;28;20551;-76
2023/11/12 05:28:16;;;;;;;10.05;5.03;;;8.30;68.00;10.30;100319.00;;;;5005600;28;20227;-77
2023/11/12 05:30:43;;;;;;;7.30;5.22;;;8.30;68.10;10.40;100316.00;;;;5006421;28;20850;-76
2023/11/12 05:33:10;;;;;;;7.47;5.43;;;8.40;68.20;10.40;100319.00;;;;5008133;28;20318;-76
2023/11/12 05:35:38;;;;;;;6.50;5.10;;;8.40;68.20;10.40;100333.00;;;;5006992;28;20284;-77
2023/11/12 05:38:05;;;;;;;8.40;5.55;;;8.40;68.30;10.40;100333.00;;;;5008690;28;20251;-76
2023/11/12 05:40:32;;;;;;;7.60;6.07;;;8.40;68.30;10.40;100324.00;;;;5005388;28;20220;-76
2023/11/12 05:43:00;;;;;;;9.80;5.50;;;8.50;68.30;10.50;100333.00;;;;5007985;28;20753;-77
2023/11/12 05:45:27;;;;;;;8.50;5.28;;;8.50;68.40;10.50;100335.00;;;;5007268;28;20280;-76
2023/11/12 05:47:54;;;;;;;7.57;5.13;;;8.50;68.40;10.50;100326.00;;;;5007327;28;20225;-77
2023/11/12 05:50:23;;;;;;;7.38;5.45;;;8.50;68.50;10.50;100331.00;;;;5007570;28;20245;-76
2023/11/12 05:52:52;;;;;;;7.63;5.53;;;8.60;68.50;10.60;100333.00;;;;4999390;28;20190;-77
2023/11/12 05:55:19;;;;;;;7.03;5.32;;;8.60;68.60;10.60;100324.00;;;;5006885;28;21780;-77
2023/11/12 05:57:46;;;;;;;7.47;5.97;;;8.60;68.60;10.60;100339.00;;;;5003606;28;20213;-76
2023/11/12 06:00:15;;;;;;;6.60;5.55;;;8.70;68.60;10.70;100333.00;;;;5001932;28;20202;-77
2023/11/12 06:02:42;;;;;;;7.07;5.90;;;8.70;68.60;10.70;100339.00;;;;5005882;28;20200;-77
2023/11/12 06:05:09;;;;;;;7.82;5.78;;;8.70;68.70;10.70;100330.00;;;;5006271;28;20205;-76
2023/11/12 06:07:36;;;;;;;6.80;6.07;;;8.70;68.60;10.80;100341.00;;;;5006062;28;20189;-77
2023/11/12 06:10:06;;;;;;;6.65;5.50;;;8.80;68.60;10.80;100338.00;;;;5006416;28;20204;-77
2023/11/12 06:12:33;;;;;;;7.25;6.05;;;8.80;68.60;10.80;100339.00;;;;5004112;28;20319;-75
2023/11/12 06:15:00;;;;;;;9.13;5.78;;;8.80;68.60;10.80;100335.00;;;;5000523;28;20197;-75
2023/11/12 06:17:27;;;;;;;7.35;6.13;;;8.90;68.60;10.90;100333.00;;;;5008637;28;20304;-75
2023/11/12 06:19:54;;;;;;;7.78;5.93;;;8.90;68.60;10.90;100336.00;;;;5004629;28;20193;-75
2023/11/12 06:22:21;;;;;;;7.80;5.47;;;8.90;68.60;10.90;100344.00;;;;5005038;28;20208;-76
2023/11/12 06:24:48;;;;;;;8.30;6.00;;;9.00;68.60;10.90;100341.00;;;;5006566;28;20200;-75
2023/11/12 06:27:16;;;;;;;6.00;5.40;;;9.00;68.60;10.90;100340.00;;;;5006856;28;20696;-75
2023/11/12 06:29:46;;;;;;;7.93;6.13;;;9.00;68.50;10.90;100344.00;;;;5005862;28;20223;-75
2023/11/12 06:32:13;;;;;;;8.68;5.93;;;9.00;68.50;11.00;100339.00;;;;5007344;28;20263;-75
2023/11/12 06:34:39;;;;;;;9.48;6.05;;;9.00;68.40;11.00;100337.00;;;;5007326;28;20201;-75
2023/11/12 06:37:06;;;;;;;8.50;5.50;;;9.00;68.30;11.00;100344.00;;;;5003936;28;20205;-75
2023/11/12 06:39:34;;;;;;;7.03;5.72;;;9.00;68.30;11.00;100345.00;;;;5007571;28;20211;-75
2023/11/12 06:42:01;;;;;;;7.28;6.20;;;9.10;68.40;11.00;100347.00;;;;5006085;28;20613;-75
2023/11/12 06:44:29;;;;;;;7.00;5.72;;;9.10;68.50;11.10;100351.00;;;;5006595;28;20197;-75
2023/11/12 06:46:57;;;;;;;8.00;6.07;;;9.10;68.50;11.10;100351.00;;;;5004767;28;20229;-75
2023/11/12 06:49:24;;;;;;;6.45;5.07;;;9.10;68.60;11.10;100348.00;;;;5009515;28;20232;-75
2023/11/12 06:51:51;;;;;;;7.18;5.78;;;9.20;68.60;11.20;100353.00;;;;5006687;28;20195;-75
2023/11/12 06:54:18;;;;;;;9.23;6.20;;;9.20;68.60;11.20;100351.00;;;;5005067;28;20227;-75
2023/11/12 06:56:45;;;;;;;7.40;5.95;;;9.30;68.60;11.20;100363.00;;;;4998751;28;20212;-75
2023/11/12 06:59:12;;;;;;;8.65;5.53;;;9.20;68.50;11.20;100363.00;;;;5003227;28;20221;-75
2023/11/12 07:01:41;;;;;;;5.75;5.22;;;9.30;68.70;11.20;100365.00;;;;5000512;28;20193;-75
2023/11/12 07:04:10;;;;;;;6.15;5.55;;;9.30;68.70;11.30;100370.00;;;;5012298;22;20232;-79
2023/11/12 07:06:37;;;;;;;6.80;5.90;;;9.30;68.70;11.30;100366.00;;;;5018389;28;20201;-75
2023/11/12 07:09:05;;;;;;;8.32;5.93;;;9.30;68.70;11.30;100370.00;;;;5028559;28;20289;-78
2023/11/12 07:11:32;;;;;;;7.53;6.43;;;9.40;68.70;11.40;100359.00;;;;5026598;28;20411;-74
2023/11/12 07:14:00;;;;;;;6.53;5.05;;;9.40;68.60;11.40;100359.00;;;;5029686;28;20198;-75
2023/11/12 07:16:27;;;;;;;7.22;6.05;;;9.40;68.50;11.40;100373.00;;;;5029460;28;20282;-75
2023/11/12 07:18:56;;;;;;;5.90;5.30;;;9.50;68.60;11.40;100368.00;;;;5020553;28;20694;-75
2023/11/12 07:21:27;;;;;;;7.75;5.70;;;9.50;68.50;11.40;100370.00;;;;5026331;28;20242;-76
2023/11/12 07:23:55;;;;;;;7.85;5.65;;;9.50;68.60;11.40;100378.00;;;;5029353;28;20204;-77
2023/11/12 07:26:24;;;;;;;10.18;5.93;;;9.50;68.50;11.50;100376.00;;;;5029113;28;20306;-76
2023/11/12 07:28:51;;;;;;;6.88;5.53;;;9.50;68.50;11.50;100376.00;;;;5029295;28;20283;-79
2023/11/12 07:31:21;;;;;;;8.05;6.38;;;9.50;68.60;11.50;100371.00;;;;5029033;28;20291;-80
2023/11/12 07:33:49;;;;;;;7.90;5.63;;;9.60;68.60;11.60;100382.00;;;;5029981;28;20665;-77
2023/11/12 07:36:24;;;;;;;11.18;6.45;;;9.60;68.60;11.50;100383.00;;;;5026417;28;20228;-78
2023/11/12 07:38:51;;;;;;;9.02;6.20;;;9.60;68.60;11.60;100388.00;;;;5029168;28;20641;-79
2023/11/12 07:41:19;;;;;;;8.38;5.82;;;9.70;68.60;11.60;100387.00;;;;5027579;28;20200;-81
2023/11/12 07:43:46;;;;;;;5.88;5.25;;;9.70;68.60;11.70;100386.00;;;;5028784;28;20223;-79
2023/11/12 07:46:13;;;;;;;6.05;5.43;;;9.70;68.60;11.70;100389.00;;;;5027579;28;20195;-80
2023/11/12 07:48:40;;;;;;;8.00;6.03;;;9.70;68.60;11.70;100390.00;;;;5026834;28;20196;-78
2023/11/12 07:51:08;;;;;;;7.10;6.15;;;9.70;68.70;11.80;100394.00;;;;5026828;28;20621;-78
2023/11/12 07:53:37;;;;;;;7.70;5.90;;;9.80;68.70;11.80;100395.00;;;;5031144;28;20657;-78
2023/11/12 07:56:06;;;;;;;7.05;5.97;;;9.80;68.70;11.90;100397.00;;;;5028942;28;20303;-79
2023/11/12 07:58:35;;;;;;;8.70;6.40;;;9.80;68.80;11.90;100396.00;;;;5029598;28;20220;-78
2023/11/12 08:01:02;;;;;;;6.63;5.93;;;9.90;68.90;11.90;100399.00;;;;5030794;28;20204;-78
2023/11/12 08:03:29;;;;;;;7.50;6.70;;;9.90;68.90;12.00;100397.00;;;;5031143;28;20224;-78
2023/11/12 08:05:59;;;;;;;7.88;6.22;;;10.00;69.00;12.00;100406.00;;;;5030685;28;20666;-79
2023/11/12 08:08:28;;;;;;;9.55;7.15;;;10.00;69.00;12.10;100406.00;;;;5031048;28;20287;-78
2023/11/12 08:10:59;;;;;;;8.65;7.75;;;10.10;69.10;12.10;100403.00;;;;5028134;28;20192;-78
2023/11/12 08:13:27;;;;;;;10.35;8.02;;;10.10;69.10;12.20;100405.00;;;;5029727;28;20322;-78
2023/11/12 08:15:54;;;;;;;8.90;7.45;;;10.10;69.10;12.20;100411.00;;;;5031054;28;20295;-78
2023/11/12 08:18:22;;;;;;;9.88;7.22;;;10.20;69.20;12.30;100415.00;;;;5032661;28;20220;-79
2023/11/12 08:20:49;;;;;;;8.27;7.35;;;10.30;69.20;12.30;100406.00;;;;5024771;28;20197;-79
2023/11/12 08:23:16;;;;;;;8.65;7.25;;;10.30;69.20;12.30;100411.00;;;;5028497;28;20193;-79
2023/11/12 08:25:44;;;;;;;7.85;7.00;;;10.30;69.20;12.40;100420.00;;;;5032469;28;20189;-78
2023/11/12 08:28:13;;;;;;;7.85;6.65;;;10.40;69.20;12.40;100425.00;;;;5030727;28;20203;-78
2023/11/12 08:30:40;;;;;;;8.27;7.05;;;10.40;69.10;12.40;100420.00;;;;5030313;28;20200;-78
2023/11/12 08:33:07;;;;;;;10.23;7.45;;;10.50;69.20;12.50;100428.00;;;;5031017;28;20200;-80
2023/11/12 08:35:34;;;;;;;8.15;7.05;;;10.50;69.10;12.50;100421.00;;;;5026073;28;20216;-79
2023/11/12 08:38:01;;;;;;;8.60;6.63;;;10.50;69.10;12.50;100414.00;;;;5031882;28;20228;-78
2023/11/12 08:40:28;;;;;;;8.63;6.85;;;10.50;69.00;12.50;100431.00;;;;5031768;28;20293;-78
2023/11/12 08:42:56;;;;;;;8.05;6.45;;;10.60;69.00;12.60;100435.00;;;;5030122;28;20216;-78
2023/11/12 08:45:25;;;;;;;7.40;6.70;;;10.60;68.90;12.60;100424.00;;;;5032335;28;20204;-78
2023/11/12 08:47:52;;;;;;;7.07;5.93;;;10.60;68.90;12.60;100436.00;;;;5032472;28;20196;-78
2023/11/12 08:50:19;;;;;;;7.07;5.88;;;10.70;68.90;12.60;100433.00;;;;5031485;28;20234;-79
2023/11/12 08:52:46;;;;;;;6.55;5.88;;;10.70;68.90;12.70;100435.00;;;;5031518;28;20211;-78
2023/11/12 08:55:13;;;;;;;7.10;6.10;;;10.70;69.00;12.70;100432.00;;;;5031889;28;20234;-79
2023/11/12 08:57:42;;;;;;;7.30;6.00;;;10.70;69.00;12.70;100422.00;;;;5028046;28;20203;-79
2023/11/12 09:00:11;;;;;;;6.97;5.32;;;10.80;69.10;12.80;100430.00;;;;5027352;28;20224;-80
2023/11/12 09:02:40;;;;;;;6.82;5.38;;;10.80;69.10;12.80;100431.00;;;;5030576;28;20203;-79
2023/11/12 09:05:08;;;;;;;8.68;5.88;;;10.80;69.20;12.90;100431.00;;;;5030818;22;20579;-77
2023/11/12 09:07:36;;;;;;;7.57;6.75;;;10.90;69.30;12.90;100424.00;;;;5007732;28;20211;-77
2023/11/12 09:10:05;;;;;;;7.20;5.78;;;10.90;70.10;13.00;100438.00;;;;5021052;28;20204;-77
2023/11/12 09:12:32;;;;;;;7.82;6.78;;;11.00;69.40;13.10;100431.00;;;;5007811;28;20689;-77
2023/11/12 09:15:00;;;;;;;7.72;6.78;;;11.00;69.50;13.10;100428.00;;;;5009465;28;20189;-77
2023/11/12 09:17:27;;;;;;;7.32;5.78;;;11.10;69.70;13.20;100429.00;;;;5008512;28;20216;-77
2023/11/12 09:19:56;;;;;;;8.05;6.63;;;11.20;69.70;13.20;100433.00;;;;5006316;28;20581;-77
2023/11/12 09:22:23;;;;;;;7.72;6.60;;;11.20;69.70;13.30;100439.00;;;;5009938;28;20300;-78
2023/11/12 09:24:50;;;;;;;10.48;8.15;;;11.30;69.80;13.40;100442.00;;;;5007039;28;20201;-78
2023/11/12 09:27:18;;;;;;;9.50;7.18;;;11.40;69.90;13.40;100446.00;;;;5002801;28;20205;-78
2023/11/12 09:29:46;;;;;;;9.52;7.93;;;11.40;70.00;13.50;100448.00;;;;5006191;28;20223;-78
2023/11/12 09:32:14;;;;;;;10.32;7.10;;;11.50;70.10;13.50;100445.00;;;;5008935;28;20275;-77
2023/11/12 09:34:43;;;;;;;10.90;8.63;;;11.60;70.00;13.60;100449.00;;;;5006946;28;20198;-77
2023/11/12 09:37:11;;;;;;;10.32;7.88;;;11.60;69.80;13.60;100453.00;;;;5017047;28;20230;-78
2023/11/12 09:39:39;;;;;;;10.38;8.40;;;11.70;69.60;13.60;100459.00;;;;5007326;28;21054;-78
2023/11/12 09:42:08;;;;;;;11.80;8.90;;;11.80;69.40;13.60;100458.00;;;;5007193;28;20288;-78
2023/11/12 09:44:38;;;;;;;11.63;9.45;;;11.80;69.30;13.60;100457.00;;;;5007246;28;20199;-78
2023/11/12 09:47:22;;;;;;;12.05;9.55;;;11.80;69.10;13.60;100463.00;;;;5017174;28;20231;-77
2023/11/12 09:49:51;;;;;;;11.50;9.57;;;11.80;69.10;13.70;100467.00;;;;5005943;28;20267;-78
2023/11/12 09:52:22;;;;;;;14.70;10.65;;;11.90;69.10;13.80;100463.00;;;;5005517;28;20199;-77
2023/11/12 09:54:51;;;;;;;14.00;10.07;;;11.90;69.10;13.80;100470.00;;;;5010847;28;20270;-77
2023/11/12 09:57:19;;;;;;;17.48;13.93;;;12.00;69.20;13.90;100464.00;;;;5009555;28;20211;-78
2023/11/12 09:59:47;;;;;;;15.15;11.75;;;12.00;69.30;14.00;100464.00;;;;5008885;28;20221;-78
2023/11/12 10:02:16;;;;;;;16.35;12.70;;;12.10;69.40;14.00;100475.00;;;;5004508;28;20208;-78
2023/11/12 10:04:43;;;;;;;16.13;13.25;;;12.20;69.30;14.10;100471.00;;;;5008102;28;21009;-79
2023/11/12 10:07:15;;;;;;;19.63;14.20;;;12.20;69.20;14.20;100467.00;;;;5006899;28;20209;-78
2023/11/12 10:09:44;;;;;;;15.55;12.77;;;12.20;69.20;14.20;100473.00;;;;5005869;28;20204;-79
2023/11/12 10:12:12;;;;;;;16.35;11.93;;;12.30;69.10;14.30;100472.00;;;;5004974;28;20849;-78
2023/11/12 10:14:41;;;;;;;16.60;12.15;;;12.30;68.90;14.30;100474.00;;;;5006555;28;20247;-79
2023/11/12 10:17:11;;;;;;;15.52;11.88;;;12.40;68.80;14.40;100473.00;;;;5006146;28;20199;-79
2023/11/12 10:19:38;;;;;;;14.63;12.40;;;12.40;69.40;14.40;100462.00;;;;5005188;28;20582;-78
2023/11/12 10:22:07;;;;;;;14.63;11.73;;;12.50;68.80;14.50;100469.00;;;;5006486;28;20200;-78
2023/11/12 10:24:46;;;;;;;16.00;11.35;;;12.50;68.70;14.40;100479.00;;;;5014212;28;20984;-78
2023/11/12 10:27:14;;;;;;;15.20;11.45;;;12.60;68.60;14.60;100471.00;;;;5005661;28;20297;-79
2023/11/12 10:29:43;;;;;;;16.73;12.80;;;12.60;68.70;14.60;100471.00;;;;5005290;28;20229;-79
2023/11/12 10:32:26;;;;;;;17.02;11.75;;;12.70;68.70;14.60;100469.00;;;;5004617;28;20200;-79
2023/11/12 10:34:53;;;;;;;15.02;11.70;;;12.80;68.60;14.80;100472.00;;;;5007045;28;20197;-79
2023/11/12 10:37:20;;;;;;;13.18;11.00;;;12.80;68.60;14.90;100476.00;;;;5004305;28;20585;-79
2023/11/12 10:39:49;;;;;;;14.20;10.90;;;12.90;68.60;14.90;100467.00;;;;5002873;28;20593;-79
2023/11/12 10:42:21;;;;;;;14.88;10.45;;;12.90;68.70;15.00;100462.00;;;;5003296;28;20207;-77
2023/11/12 10:44:49;;;;;;;14.75;11.45;;;13.00;68.70;15.10;100471.00;;;;5005336;28;20193;-78
2023/11/12 10:47:19;;;;;;;13.43;10.30;;;13.10;69.30;15.10;100473.00;;;;5008841;28;20201;-78
2023/11/12 10:49:47;;;;;;;14.02;10.05;;;13.10;68.50;15.20;100474.00;;;;5006640;28;20216;-77
2023/11/12 10:52:15;;;;;;;11.00;8.82;;;13.20;68.40;15.20;100475.00;;;;5014557;28;20201;-77